Pomona, Missouri
Current Conditions -  °F | °C
As of 6:53 AM on Saturday 25 Oct 2014 (Local Time) from KUNO Reporting Station
Clear Clear  
Wind Chill: 14°   Ceiling: Unl
Heat Index: 14°   Visibility: 7mi
Dew Point: 13°   Wind: 8mph
Humidity: 93%   Direction: 240°WSW
Pressure: 30.08"   Gusts: NA
Location:  36.87°N, 91.91°W
Report Text: KUNO 251153Z AUTO 24007KT 7SM CLR 14/13 A3008 RMK AO2 SLP178 T01440133 10156 20144 50005
Loading
Personal Weather Stations






























Interactive Weather Map
Tropical Storm Tracking
New forecast layout! Learn more

10-Day Weather Forecast

Advertisements
Track Severe Weather on mobile